sensor_id;sensor_type;location;lat;lon;timestamp;P1;durP1;ratioP1;P2;durP2;ratioP2
37203;SDS011;23098;48.054;10.636;2023-02-15T00:00:07;29.10;;;9.23;;
37203;SDS011;23098;48.054;10.636;2023-02-15T00:02:35;39.15;;;10.13;;
37203;SDS011;23098;48.054;10.636;2023-02-15T00:05:00;58.72;;;10.73;;
37203;SDS011;23098;48.054;10.636;2023-02-15T00:07:27;47.05;;;10.80;;
37203;SDS011;23098;48.054;10.636;2023-02-15T00:09:53;60.55;;;10.68;;
37203;SDS011;23098;48.054;10.636;2023-02-15T00:12:18;76.38;;;11.75;;
37203;SDS011;23098;48.054;10.636;2023-02-15T00:14:44;48.50;;;11.23;;
37203;SDS011;23098;48.054;10.636;2023-02-15T00:17:10;51.55;;;11.07;;
37203;SDS011;23098;48.054;10.636;2023-02-15T00:19:35;43.35;;;10.85;;
37203;SDS011;23098;48.054;10.636;2023-02-15T00:22:01;75.93;;;11.80;;
37203;SDS011;23098;48.054;10.636;2023-02-15T00:24:26;55.10;;;11.68;;
37203;SDS011;23098;48.054;10.636;2023-02-15T00:26:52;88.85;;;11.77;;
37203;SDS011;23098;48.054;10.636;2023-02-15T00:29:18;95.30;;;12.88;;
37203;SDS011;23098;48.054;10.636;2023-02-15T00:31:44;37.40;;;10.93;;
37203;SDS011;23098;48.054;10.636;2023-02-15T00:34:29;87.13;;;12.20;;
37203;SDS011;23098;48.054;10.636;2023-02-15T00:36:54;47.83;;;11.57;;
37203;SDS011;23098;48.054;10.636;2023-02-15T00:39:20;48.25;;;11.75;;
37203;SDS011;23098;48.054;10.636;2023-02-15T00:41:46;73.75;;;11.90;;
37203;SDS011;23098;48.054;10.636;2023-02-15T00:44:12;54.95;;;11.70;;
37203;SDS011;23098;48.054;10.636;2023-02-15T00:46:38;83.63;;;11.63;;
37203;SDS011;23098;48.054;10.636;2023-02-15T00:49:04;96.55;;;12.25;;
37203;SDS011;23098;48.054;10.636;2023-02-15T00:51:30;96.68;;;12.27;;
37203;SDS011;23098;48.054;10.636;2023-02-15T00:53:57;79.07;;;12.40;;
37203;SDS011;23098;48.054;10.636;2023-02-15T00:56:22;75.22;;;12.20;;
37203;SDS011;23098;48.054;10.636;2023-02-15T00:58:48;59.50;;;12.10;;
37203;SDS011;23098;48.054;10.636;2023-02-15T01:01:14;50.05;;;11.15;;
37203;SDS011;23098;48.054;10.636;2023-02-15T01:03:42;47.28;;;10.50;;
37203;SDS011;23098;48.054;10.636;2023-02-15T01:06:09;88.57;;;13.10;;
37203;SDS011;23098;48.054;10.636;2023-02-15T01:08:35;56.55;;;11.80;;
37203;SDS011;23098;48.054;10.636;2023-02-15T01:11:05;67.70;;;12.80;;
37203;SDS011;23098;48.054;10.636;2023-02-15T01:13:33;58.70;;;11.55;;
37203;SDS011;23098;48.054;10.636;2023-02-15T01:15:59;57.53;;;11.18;;
37203;SDS011;23098;48.054;10.636;2023-02-15T01:18:25;36.25;;;11.13;;
37203;SDS011;23098;48.054;10.636;2023-02-15T01:20:51;53.53;;;13.05;;
37203;SDS011;23098;48.054;10.636;2023-02-15T01:23:17;80.35;;;12.07;;
37203;SDS011;23098;48.054;10.636;2023-02-15T01:25:42;52.88;;;11.48;;
37203;SDS011;23098;48.054;10.636;2023-02-15T01:28:08;81.53;;;12.43;;
37203;SDS011;23098;48.054;10.636;2023-02-15T01:30:33;64.75;;;11.48;;
37203;SDS011;23098;48.054;10.636;2023-02-15T01:32:59;58.50;;;10.57;;
37203;SDS011;23098;48.054;10.636;2023-02-15T01:35:25;62.70;;;10.80;;
37203;SDS011;23098;48.054;10.636;2023-02-15T01:37:51;45.10;;;10.75;;
37203;SDS011;23098;48.054;10.636;2023-02-15T01:40:18;80.35;;;11.73;;
37203;SDS011;23098;48.054;10.636;2023-02-15T01:42:44;59.33;;;10.55;;
37203;SDS011;23098;48.054;10.636;2023-02-15T01:45:21;45.30;;;9.95;;
37203;SDS011;23098;48.054;10.636;2023-02-15T01:47:52;50.97;;;10.98;;
37203;SDS011;23098;48.054;10.636;2023-02-15T01:50:28;64.40;;;10.68;;
37203;SDS011;23098;48.054;10.636;2023-02-15T01:53:21;94.22;;;11.10;;
37203;SDS011;23098;48.054;10.636;2023-02-15T01:56:05;92.68;;;10.38;;
37203;SDS011;23098;48.054;10.636;2023-02-15T01:58:38;56.40;;;10.73;;
37203;SDS011;23098;48.054;10.636;2023-02-15T02:01:04;64.78;;;9.93;;
37203;SDS011;23098;48.054;10.636;2023-02-15T02:03:49;50.20;;;9.27;;
37203;SDS011;23098;48.054;10.636;2023-02-15T02:06:32;102.50;;;10.88;;
37203;SDS011;23098;48.054;10.636;2023-02-15T02:08:59;87.75;;;10.95;;
37203;SDS011;23098;48.054;10.636;2023-02-15T02:11:26;45.03;;;9.98;;
37203;SDS011;23098;48.054;10.636;2023-02-15T02:13:51;75.70;;;10.95;;
37203;SDS011;23098;48.054;10.636;2023-02-15T02:16:25;94.18;;;10.60;;
37203;SDS011;23098;48.054;10.636;2023-02-15T02:25:12;51.63;;;10.02;;
37203;SDS011;23098;48.054;10.636;2023-02-15T02:30:34;111.30;;;12.30;;
37203;SDS011;23098;48.054;10.636;2023-02-15T02:33:29;115.57;;;10.93;;
37203;SDS011;23098;48.054;10.636;2023-02-15T02:42:00;51.83;;;9.15;;
37203;SDS011;23098;48.054;10.636;2023-02-15T02:47:27;90.90;;;10.15;;
37203;SDS011;23098;48.054;10.636;2023-02-15T02:50:02;63.75;;;9.60;;
37203;SDS011;23098;48.054;10.636;2023-02-15T02:52:39;60.03;;;10.25;;
37203;SDS011;23098;48.054;10.636;2023-02-15T02:55:16;95.70;;;10.40;;
37203;SDS011;23098;48.054;10.636;2023-02-15T02:57:56;68.95;;;10.88;;
37203;SDS011;23098;48.054;10.636;2023-02-15T03:00:29;39.28;;;8.57;;
37203;SDS011;23098;48.054;10.636;2023-02-15T03:03:00;62.58;;;10.55;;
37203;SDS011;23098;48.054;10.636;2023-02-15T03:05:37;40.65;;;9.73;;
37203;SDS011;23098;48.054;10.636;2023-02-15T03:08:09;61.15;;;10.23;;
37203;SDS011;23098;48.054;10.636;2023-02-15T03:10:36;105.40;;;10.55;;
37203;SDS011;23098;48.054;10.636;2023-02-15T03:13:04;50.80;;;10.60;;
37203;SDS011;23098;48.054;10.636;2023-02-15T03:15:31;58.47;;;10.18;;
37203;SDS011;23098;48.054;10.636;2023-02-15T03:18:22;49.50;;;9.77;;
37203;SDS011;23098;48.054;10.636;2023-02-15T03:20:50;51.65;;;10.00;;
37203;SDS011;23098;48.054;10.636;2023-02-15T03:23:18;61.42;;;10.68;;
37203;SDS011;23098;48.054;10.636;2023-02-15T03:25:52;86.55;;;11.02;;
37203;SDS011;23098;48.054;10.636;2023-02-15T03:28:26;80.53;;;10.43;;
37203;SDS011;23098;48.054;10.636;2023-02-15T03:31:00;46.65;;;9.15;;
37203;SDS011;23098;48.054;10.636;2023-02-15T03:33:27;61.75;;;11.20;;
37203;SDS011;23098;48.054;10.636;2023-02-15T03:38:36;43.00;;;10.02;;
37203;SDS011;23098;48.054;10.636;2023-02-15T03:41:09;69.15;;;11.43;;
37203;SDS011;23098;48.054;10.636;2023-02-15T03:43:48;68.20;;;10.60;;
37203;SDS011;23098;48.054;10.636;2023-02-15T03:49:24;118.47;;;11.98;;
37203;SDS011;23098;48.054;10.636;2023-02-15T03:52:07;74.88;;;10.75;;
37203;SDS011;23098;48.054;10.636;2023-02-15T03:54:35;130.63;;;12.00;;
37203;SDS011;23098;48.054;10.636;2023-02-15T03:59:55;144.40;;;12.63;;
37203;SDS011;23098;48.054;10.636;2023-02-15T04:05:40;19.67;;;7.75;;
37203;SDS011;23098;48.054;10.636;2023-02-15T04:08:08;47.03;;;9.27;;
37203;SDS011;23098;48.054;10.636;2023-02-15T04:10:33;66.70;;;9.98;;
37203;SDS011;23098;48.054;10.636;2023-02-15T04:13:21;56.67;;;9.80;;
37203;SDS011;23098;48.054;10.636;2023-02-15T04:15:48;31.17;;;8.63;;
37203;SDS011;23098;48.054;10.636;2023-02-15T04:18:31;36.10;;;6.88;;
37203;SDS011;23098;48.054;10.636;2023-02-15T04:21:19;65.78;;;7.53;;
37203;SDS011;23098;48.054;10.636;2023-02-15T04:24:05;55.20;;;8.88;;
37203;SDS011;23098;48.054;10.636;2023-02-15T04:26:49;49.83;;;9.35;;
37203;SDS011;23098;48.054;10.636;2023-02-15T04:29:17;40.35;;;9.18;;
37203;SDS011;23098;48.054;10.636;2023-02-15T04:31:46;65.68;;;9.65;;
37203;SDS011;23098;48.054;10.636;2023-02-15T04:34:12;32.00;;;9.50;;
37203;SDS011;23098;48.054;10.636;2023-02-15T04:36:38;66.22;;;9.45;;
37203;SDS011;23098;48.054;10.636;2023-02-15T04:39:05;41.70;;;9.93;;
37203;SDS011;23098;48.054;10.636;2023-02-15T04:41:31;79.38;;;10.93;;
37203;SDS011;23098;48.054;10.636;2023-02-15T04:43:57;53.58;;;10.25;;
37203;SDS011;23098;48.054;10.636;2023-02-15T04:46:24;30.48;;;9.30;;
37203;SDS011;23098;48.054;10.636;2023-02-15T04:48:49;40.05;;;10.88;;
37203;SDS011;23098;48.054;10.636;2023-02-15T04:51:15;17.50;;;9.10;;
37203;SDS011;23098;48.054;10.636;2023-02-15T04:53:41;55.90;;;10.15;;
37203;SDS011;23098;48.054;10.636;2023-02-15T04:56:06;69.07;;;10.60;;
37203;SDS011;23098;48.054;10.636;2023-02-15T04:58:32;39.05;;;9.85;;
37203;SDS011;23098;48.054;10.636;2023-02-15T05:00:57;51.70;;;10.48;;
37203;SDS011;23098;48.054;10.636;2023-02-15T05:03:23;81.22;;;10.35;;
37203;SDS011;23098;48.054;10.636;2023-02-15T05:05:49;35.28;;;9.65;;
37203;SDS011;23098;48.054;10.636;2023-02-15T05:08:15;39.15;;;9.30;;
37203;SDS011;23098;48.054;10.636;2023-02-15T05:10:41;49.65;;;10.63;;
37203;SDS011;23098;48.054;10.636;2023-02-15T05:13:07;49.30;;;10.68;;
37203;SDS011;23098;48.054;10.636;2023-02-15T05:15:32;27.70;;;10.65;;
37203;SDS011;23098;48.054;10.636;2023-02-15T05:17:58;32.10;;;9.45;;
37203;SDS011;23098;48.054;10.636;2023-02-15T05:20:23;29.27;;;10.07;;
37203;SDS011;23098;48.054;10.636;2023-02-15T05:22:52;35.80;;;9.30;;
37203;SDS011;23098;48.054;10.636;2023-02-15T05:25:18;38.03;;;9.45;;
37203;SDS011;23098;48.054;10.636;2023-02-15T05:28:02;111.88;;;10.10;;
37203;SDS011;23098;48.054;10.636;2023-02-15T05:30:49;23.83;;;9.30;;
37203;SDS011;23098;48.054;10.636;2023-02-15T05:33:24;18.73;;;8.55;;
37203;SDS011;23098;48.054;10.636;2023-02-15T05:35:49;15.52;;;8.80;;
37203;SDS011;23098;48.054;10.636;2023-02-15T05:38:16;14.18;;;8.73;;
37203;SDS011;23098;48.054;10.636;2023-02-15T05:40:41;14.15;;;8.95;;
37203;SDS011;23098;48.054;10.636;2023-02-15T05:43:07;12.70;;;7.60;;
37203;SDS011;23098;48.054;10.636;2023-02-15T05:45:32;14.18;;;8.27;;
37203;SDS011;23098;48.054;10.636;2023-02-15T05:47:58;16.40;;;8.32;;
37203;SDS011;23098;48.054;10.636;2023-02-15T05:50:23;12.98;;;7.80;;
37203;SDS011;23098;48.054;10.636;2023-02-15T05:52:49;14.10;;;7.95;;
37203;SDS011;23098;48.054;10.636;2023-02-15T05:55:15;13.55;;;8.57;;
37203;SDS011;23098;48.054;10.636;2023-02-15T05:57:40;18.70;;;9.75;;
37203;SDS011;23098;48.054;10.636;2023-02-15T06:00:06;13.52;;;8.40;;
37203;SDS011;23098;48.054;10.636;2023-02-15T06:02:33;15.15;;;9.23;;
37203;SDS011;23098;48.054;10.636;2023-02-15T06:04:59;13.70;;;8.68;;
37203;SDS011;23098;48.054;10.636;2023-02-15T06:07:25;14.70;;;8.60;;
37203;SDS011;23098;48.054;10.636;2023-02-15T06:09:50;14.93;;;8.88;;
37203;SDS011;23098;48.054;10.636;2023-02-15T06:12:16;13.07;;;8.48;;
37203;SDS011;23098;48.054;10.636;2023-02-15T06:14:42;13.75;;;8.77;;
37203;SDS011;23098;48.054;10.636;2023-02-15T06:17:07;14.98;;;9.25;;
37203;SDS011;23098;48.054;10.636;2023-02-15T06:19:33;15.85;;;9.35;;
37203;SDS011;23098;48.054;10.636;2023-02-15T06:21:58;14.15;;;8.32;;
37203;SDS011;23098;48.054;10.636;2023-02-15T06:24:24;14.02;;;9.07;;
37203;SDS011;23098;48.054;10.636;2023-02-15T06:26:49;15.25;;;9.43;;
37203;SDS011;23098;48.054;10.636;2023-02-15T06:29:15;15.73;;;8.98;;
37203;SDS011;23098;48.054;10.636;2023-02-15T06:31:40;15.05;;;8.32;;
37203;SDS011;23098;48.054;10.636;2023-02-15T06:34:06;14.38;;;8.65;;
37203;SDS011;23098;48.054;10.636;2023-02-15T06:36:31;14.63;;;8.88;;
37203;SDS011;23098;48.054;10.636;2023-02-15T06:38:57;14.27;;;8.50;;
37203;SDS011;23098;48.054;10.636;2023-02-15T06:41:23;13.85;;;8.70;;
37203;SDS011;23098;48.054;10.636;2023-02-15T06:43:49;15.20;;;8.82;;
37203;SDS011;23098;48.054;10.636;2023-02-15T06:46:14;13.63;;;8.38;;
37203;SDS011;23098;48.054;10.636;2023-02-15T06:48:41;15.55;;;8.82;;
37203;SDS011;23098;48.054;10.636;2023-02-15T06:51:07;14.75;;;8.88;;
37203;SDS011;23098;48.054;10.636;2023-02-15T06:53:33;16.02;;;9.70;;
37203;SDS011;23098;48.054;10.636;2023-02-15T06:56:06;16.17;;;9.82;;
37203;SDS011;23098;48.054;10.636;2023-02-15T06:58:34;16.42;;;9.57;;
37203;SDS011;23098;48.054;10.636;2023-02-15T07:01:00;14.90;;;9.35;;
37203;SDS011;23098;48.054;10.636;2023-02-15T07:03:26;15.48;;;9.30;;
37203;SDS011;23098;48.054;10.636;2023-02-15T07:05:55;16.60;;;9.95;;
37203;SDS011;23098;48.054;10.636;2023-02-15T07:08:22;15.10;;;9.27;;
37203;SDS011;23098;48.054;10.636;2023-02-15T07:10:48;15.73;;;8.70;;
37203;SDS011;23098;48.054;10.636;2023-02-15T07:13:14;15.57;;;9.82;;
37203;SDS011;23098;48.054;10.636;2023-02-15T07:15:40;15.00;;;9.32;;
37203;SDS011;23098;48.054;10.636;2023-02-15T07:18:05;13.95;;;8.85;;
37203;SDS011;23098;48.054;10.636;2023-02-15T07:20:31;15.57;;;9.60;;
37203;SDS011;23098;48.054;10.636;2023-02-15T07:22:59;19.48;;;10.02;;
37203;SDS011;23098;48.054;10.636;2023-02-15T07:25:24;16.50;;;9.75;;
37203;SDS011;23098;48.054;10.636;2023-02-15T07:27:55;16.52;;;9.63;;
37203;SDS011;23098;48.054;10.636;2023-02-15T07:30:25;15.75;;;9.73;;
37203;SDS011;23098;48.054;10.636;2023-02-15T07:32:54;17.08;;;9.30;;
37203;SDS011;23098;48.054;10.636;2023-02-15T07:35:48;15.20;;;9.00;;
37203;SDS011;23098;48.054;10.636;2023-02-15T07:38:25;17.58;;;9.45;;
37203;SDS011;23098;48.054;10.636;2023-02-15T07:40:51;13.82;;;9.38;;
37203;SDS011;23098;48.054;10.636;2023-02-15T07:43:23;16.92;;;10.05;;
37203;SDS011;23098;48.054;10.636;2023-02-15T07:45:48;18.13;;;11.40;;
37203;SDS011;23098;48.054;10.636;2023-02-15T07:48:14;17.60;;;10.55;;
37203;SDS011;23098;48.054;10.636;2023-02-15T07:50:39;20.85;;;11.45;;
37203;SDS011;23098;48.054;10.636;2023-02-15T07:53:05;20.15;;;12.00;;
37203;SDS011;23098;48.054;10.636;2023-02-15T07:55:30;22.83;;;12.05;;
37203;SDS011;23098;48.054;10.636;2023-02-15T07:57:57;19.45;;;11.48;;
37203;SDS011;23098;48.054;10.636;2023-02-15T08:00:24;16.13;;;10.27;;
37203;SDS011;23098;48.054;10.636;2023-02-15T08:02:50;20.05;;;10.90;;
37203;SDS011;23098;48.054;10.636;2023-02-15T08:05:38;16.48;;;9.90;;
37203;SDS011;23098;48.054;10.636;2023-02-15T08:08:05;16.10;;;10.30;;
37203;SDS011;23098;48.054;10.636;2023-02-15T08:10:31;14.68;;;9.35;;
37203;SDS011;23098;48.054;10.636;2023-02-15T08:13:15;15.20;;;9.57;;
37203;SDS011;23098;48.054;10.636;2023-02-15T08:15:47;13.75;;;9.15;;
37203;SDS011;23098;48.054;10.636;2023-02-15T08:18:16;14.40;;;8.85;;
37203;SDS011;23098;48.054;10.636;2023-02-15T08:20:41;13.40;;;8.02;;
37203;SDS011;23098;48.054;10.636;2023-02-15T08:23:07;15.68;;;8.55;;
37203;SDS011;23098;48.054;10.636;2023-02-15T08:25:33;13.75;;;8.77;;
37203;SDS011;23098;48.054;10.636;2023-02-15T08:27:59;15.45;;;8.75;;
37203;SDS011;23098;48.054;10.636;2023-02-15T08:30:24;18.50;;;10.00;;
37203;SDS011;23098;48.054;10.636;2023-02-15T08:32:50;21.33;;;11.85;;
37203;SDS011;23098;48.054;10.636;2023-02-15T08:35:15;19.20;;;11.45;;
37203;SDS011;23098;48.054;10.636;2023-02-15T08:37:42;21.15;;;12.27;;
37203;SDS011;23098;48.054;10.636;2023-02-15T08:40:07;17.15;;;11.57;;
37203;SDS011;23098;48.054;10.636;2023-02-15T08:42:33;16.80;;;10.93;;
37203;SDS011;23098;48.054;10.636;2023-02-15T08:44:59;14.43;;;10.20;;
37203;SDS011;23098;48.054;10.636;2023-02-15T08:47:24;15.65;;;10.05;;
37203;SDS011;23098;48.054;10.636;2023-02-15T08:49:50;17.52;;;10.50;;
37203;SDS011;23098;48.054;10.636;2023-02-15T08:52:16;14.65;;;9.25;;
37203;SDS011;23098;48.054;10.636;2023-02-15T08:54:42;12.18;;;8.85;;
37203;SDS011;23098;48.054;10.636;2023-02-15T08:57:07;13.80;;;8.80;;
37203;SDS011;23098;48.054;10.636;2023-02-15T08:59:34;15.90;;;8.70;;
37203;SDS011;23098;48.054;10.636;2023-02-15T09:02:00;10.85;;;7.75;;
37203;SDS011;23098;48.054;10.636;2023-02-15T09:04:26;13.13;;;8.55;;
37203;SDS011;23098;48.054;10.636;2023-02-15T09:06:51;14.27;;;7.32;;
37203;SDS011;23098;48.054;10.636;2023-02-15T09:09:17;13.90;;;7.95;;
37203;SDS011;23098;48.054;10.636;2023-02-15T09:11:44;16.70;;;7.07;;
37203;SDS011;23098;48.054;10.636;2023-02-15T09:14:19;12.88;;;8.10;;
37203;SDS011;23098;48.054;10.636;2023-02-15T09:16:46;12.27;;;8.07;;
37203;SDS011;23098;48.054;10.636;2023-02-15T09:19:14;12.48;;;8.35;;
37203;SDS011;23098;48.054;10.636;2023-02-15T09:21:42;13.25;;;8.15;;
37203;SDS011;23098;48.054;10.636;2023-02-15T09:24:08;16.92;;;8.35;;
37203;SDS011;23098;48.054;10.636;2023-02-15T09:26:37;10.90;;;7.32;;
37203;SDS011;23098;48.054;10.636;2023-02-15T09:29:05;10.98;;;7.20;;
37203;SDS011;23098;48.054;10.636;2023-02-15T09:31:42;12.75;;;7.70;;
37203;SDS011;23098;48.054;10.636;2023-02-15T09:34:10;11.30;;;7.68;;
37203;SDS011;23098;48.054;10.636;2023-02-15T09:36:38;10.80;;;7.63;;
37203;SDS011;23098;48.054;10.636;2023-02-15T09:44:22;8.23;;;6.18;;
37203;SDS011;23098;48.054;10.636;2023-02-15T09:47:18;10.63;;;7.45;;
37203;SDS011;23098;48.054;10.636;2023-02-15T09:49:55;10.43;;;7.97;;
37203;SDS011;23098;48.054;10.636;2023-02-15T09:52:53;14.35;;;8.10;;
37203;SDS011;23098;48.054;10.636;2023-02-15T10:03:26;11.02;;;7.43;;
37203;SDS011;23098;48.054;10.636;2023-02-15T10:11:15;11.98;;;8.07;;
37203;SDS011;23098;48.054;10.636;2023-02-15T10:14:27;11.07;;;8.10;;
37203;SDS011;23098;48.054;10.636;2023-02-15T10:17:24;13.60;;;7.32;;
37203;SDS011;23098;48.054;10.636;2023-02-15T10:23:08;8.45;;;6.00;;
37203;SDS011;23098;48.054;10.636;2023-02-15T10:29:02;8.07;;;5.80;;
37203;SDS011;23098;48.054;10.636;2023-02-15T10:31:39;9.95;;;6.45;;
37203;SDS011;23098;48.054;10.636;2023-02-15T10:36:58;8.27;;;6.60;;
37203;SDS011;23098;48.054;10.636;2023-02-15T10:50:57;8.90;;;6.70;;
37203;SDS011;23098;48.054;10.636;2023-02-15T10:56:25;8.80;;;6.15;;
37203;SDS011;23098;48.054;10.636;2023-02-15T10:59:20;10.50;;;6.47;;
37203;SDS011;23098;48.054;10.636;2023-02-15T11:02:16;8.63;;;6.13;;
37203;SDS011;23098;48.054;10.636;2023-02-15T11:04:53;7.40;;;6.03;;
37203;SDS011;23098;48.054;10.636;2023-02-15T11:07:23;7.75;;;5.95;;
37203;SDS011;23098;48.054;10.636;2023-02-15T11:09:53;10.25;;;5.53;;
37203;SDS011;23098;48.054;10.636;2023-02-15T11:12:24;9.82;;;5.70;;
37203;SDS011;23098;48.054;10.636;2023-02-15T11:14:58;8.73;;;5.50;;
37203;SDS011;23098;48.054;10.636;2023-02-15T11:17:37;7.25;;;5.45;;
37203;SDS011;23098;48.054;10.636;2023-02-15T11:20:23;8.85;;;5.28;;
37203;SDS011;23098;48.054;10.636;2023-02-15T11:22:49;9.75;;;5.30;;
37203;SDS011;23098;48.054;10.636;2023-02-15T11:25:19;10.02;;;5.07;;
37203;SDS011;23098;48.054;10.636;2023-02-15T11:27:49;8.80;;;5.20;;
37203;SDS011;23098;48.054;10.636;2023-02-15T11:30:24;8.75;;;4.95;;
37203;SDS011;23098;48.054;10.636;2023-02-15T11:32:56;8.35;;;4.70;;
37203;SDS011;23098;48.054;10.636;2023-02-15T11:40:55;7.15;;;4.47;;
37203;SDS011;23098;48.054;10.636;2023-02-15T11:43:30;8.25;;;4.57;;
37203;SDS011;23098;48.054;10.636;2023-02-15T11:46:21;12.73;;;4.80;;
37203;SDS011;23098;48.054;10.636;2023-02-15T11:48:47;5.88;;;4.50;;
37203;SDS011;23098;48.054;10.636;2023-02-15T11:51:20;6.88;;;4.32;;
37203;SDS011;23098;48.054;10.636;2023-02-15T11:53:48;7.82;;;5.13;;
37203;SDS011;23098;48.054;10.636;2023-02-15T11:56:15;7.95;;;5.07;;
37203;SDS011;23098;48.054;10.636;2023-02-15T12:04:04;4.68;;;4.15;;
37203;SDS011;23098;48.054;10.636;2023-02-15T12:07:00;6.63;;;4.85;;
37203;SDS011;23098;48.054;10.636;2023-02-15T12:09:40;7.13;;;4.40;;
37203;SDS011;23098;48.054;10.636;2023-02-15T12:15:09;5.35;;;4.47;;
37203;SDS011;23098;48.054;10.636;2023-02-15T12:17:41;5.60;;;4.28;;
37203;SDS011;23098;48.054;10.636;2023-02-15T12:25:50;5.55;;;4.82;;
37203;SDS011;23098;48.054;10.636;2023-02-15T12:33:55;6.63;;;5.15;;
37203;SDS011;23098;48.054;10.636;2023-02-15T12:36:25;7.53;;;5.07;;
37203;SDS011;23098;48.054;10.636;2023-02-15T12:39:04;7.68;;;5.20;;
37203;SDS011;23098;48.054;10.636;2023-02-15T12:41:49;5.95;;;5.05;;
37203;SDS011;23098;48.054;10.636;2023-02-15T12:44:28;7.03;;;4.90;;
37203;SDS011;23098;48.054;10.636;2023-02-15T12:46:59;7.75;;;4.90;;
37203;SDS011;23098;48.054;10.636;2023-02-15T12:49:30;7.00;;;5.20;;
37203;SDS011;23098;48.054;10.636;2023-02-15T12:52:02;6.70;;;5.22;;
37203;SDS011;23098;48.054;10.636;2023-02-15T12:54:38;7.70;;;5.25;;
37203;SDS011;23098;48.054;10.636;2023-02-15T12:57:13;11.00;;;5.55;;
37203;SDS011;23098;48.054;10.636;2023-02-15T13:02:27;7.22;;;5.00;;
37203;SDS011;23098;48.054;10.636;2023-02-15T13:04:55;7.82;;;4.85;;
37203;SDS011;23098;48.054;10.636;2023-02-15T13:07:23;8.38;;;5.05;;
37203;SDS011;23098;48.054;10.636;2023-02-15T13:09:54;10.43;;;5.47;;
37203;SDS011;23098;48.054;10.636;2023-02-15T13:12:23;9.20;;;5.63;;
37203;SDS011;23098;48.054;10.636;2023-02-15T13:14:56;9.30;;;5.60;;
37203;SDS011;23098;48.054;10.636;2023-02-15T13:17:28;7.63;;;5.28;;
37203;SDS011;23098;48.054;10.636;2023-02-15T13:20:02;7.47;;;5.35;;
37203;SDS011;23098;48.054;10.636;2023-02-15T13:22:39;8.32;;;5.20;;
37203;SDS011;23098;48.054;10.636;2023-02-15T13:25:21;8.02;;;5.40;;
37203;SDS011;23098;48.054;10.636;2023-02-15T13:27:50;7.57;;;5.32;;
37203;SDS011;23098;48.054;10.636;2023-02-15T13:30:26;9.30;;;5.60;;
37203;SDS011;23098;48.054;10.636;2023-02-15T13:33:01;7.63;;;5.40;;
37203;SDS011;23098;48.054;10.636;2023-02-15T13:35:34;9.57;;;5.25;;
37203;SDS011;23098;48.054;10.636;2023-02-15T13:38:09;7.55;;;5.15;;
37203;SDS011;23098;48.054;10.636;2023-02-15T13:40:55;8.18;;;5.22;;
37203;SDS011;23098;48.054;10.636;2023-02-15T13:43:38;7.78;;;5.10;;
37203;SDS011;23098;48.054;10.636;2023-02-15T13:51:42;11.45;;;5.40;;
37203;SDS011;23098;48.054;10.636;2023-02-15T13:56:48;8.13;;;5.60;;
37203;SDS011;23098;48.054;10.636;2023-02-15T13:59:44;10.32;;;5.75;;
37203;SDS011;23098;48.054;10.636;2023-02-15T14:08:19;9.57;;;5.30;;
37203;SDS011;23098;48.054;10.636;2023-02-15T14:11:12;10.45;;;5.97;;
37203;SDS011;23098;48.054;10.636;2023-02-15T14:14:11;9.50;;;5.88;;
37203;SDS011;23098;48.054;10.636;2023-02-15T14:19:50;11.10;;;5.77;;
37203;SDS011;23098;48.054;10.636;2023-02-15T14:33:29;10.25;;;6.90;;
37203;SDS011;23098;48.054;10.636;2023-02-15T14:35:59;10.18;;;7.13;;
37203;SDS011;23098;48.054;10.636;2023-02-15T14:46:58;10.40;;;7.60;;
37203;SDS011;23098;48.054;10.636;2023-02-15T14:49:40;11.98;;;7.80;;
37203;SDS011;23098;48.054;10.636;2023-02-15T14:52:06;15.32;;;9.43;;
37203;SDS011;23098;48.054;10.636;2023-02-15T15:02:27;12.63;;;8.32;;
37203;SDS011;23098;48.054;10.636;2023-02-15T15:05:08;11.27;;;8.27;;
37203;SDS011;23098;48.054;10.636;2023-02-15T15:07:52;13.35;;;9.00;;
37203;SDS011;23098;48.054;10.636;2023-02-15T15:12:52;12.65;;;9.80;;
37203;SDS011;23098;48.054;10.636;2023-02-15T15:25:50;16.20;;;10.10;;
37203;SDS011;23098;48.054;10.636;2023-02-15T15:31:03;16.50;;;11.25;;
37203;SDS011;23098;48.054;10.636;2023-02-15T15:33:39;19.23;;;10.88;;
37203;SDS011;23098;48.054;10.636;2023-02-15T15:36:38;16.85;;;11.05;;
37203;SDS011;23098;48.054;10.636;2023-02-15T15:39:44;15.80;;;11.10;;
37203;SDS011;23098;48.054;10.636;2023-02-15T15:45:22;17.50;;;10.35;;
37203;SDS011;23098;48.054;10.636;2023-02-15T15:50:59;17.77;;;11.95;;
37203;SDS011;23098;48.054;10.636;2023-02-15T15:53:28;17.67;;;10.90;;
37203;SDS011;23098;48.054;10.636;2023-02-15T15:56:00;19.10;;;11.85;;
37203;SDS011;23098;48.054;10.636;2023-02-15T16:01:02;17.73;;;11.13;;
37203;SDS011;23098;48.054;10.636;2023-02-15T16:03:33;17.88;;;10.88;;
37203;SDS011;23098;48.054;10.636;2023-02-15T16:05:59;17.27;;;11.68;;
37203;SDS011;23098;48.054;10.636;2023-02-15T16:08:28;18.10;;;12.00;;
37203;SDS011;23098;48.054;10.636;2023-02-15T16:10:55;22.05;;;13.48;;
37203;SDS011;23098;48.054;10.636;2023-02-15T16:13:21;19.67;;;12.45;;
37203;SDS011;23098;48.054;10.636;2023-02-15T16:15:47;23.70;;;14.82;;
37203;SDS011;23098;48.054;10.636;2023-02-15T16:18:17;21.40;;;14.38;;
37203;SDS011;23098;48.054;10.636;2023-02-15T16:20:48;43.03;;;19.92;;
37203;SDS011;23098;48.054;10.636;2023-02-15T16:26:18;20.60;;;13.43;;
37203;SDS011;23098;48.054;10.636;2023-02-15T16:29:16;25.38;;;14.65;;
37203;SDS011;23098;48.054;10.636;2023-02-15T16:31:43;22.80;;;15.15;;
37203;SDS011;23098;48.054;10.636;2023-02-15T16:34:21;21.40;;;13.45;;
37203;SDS011;23098;48.054;10.636;2023-02-15T16:36:46;30.10;;;16.63;;
37203;SDS011;23098;48.054;10.636;2023-02-15T16:39:18;27.05;;;16.30;;
37203;SDS011;23098;48.054;10.636;2023-02-15T16:41:45;25.40;;;15.75;;
37203;SDS011;23098;48.054;10.636;2023-02-15T16:44:14;24.02;;;15.68;;
37203;SDS011;23098;48.054;10.636;2023-02-15T16:46:43;26.50;;;16.83;;
37203;SDS011;23098;48.054;10.636;2023-02-15T16:49:18;25.75;;;15.95;;
37203;SDS011;23098;48.054;10.636;2023-02-15T16:51:53;25.10;;;16.50;;
37203;SDS011;23098;48.054;10.636;2023-02-15T16:54:27;25.98;;;17.45;;
37203;SDS011;23098;48.054;10.636;2023-02-15T16:56:56;37.47;;;21.23;;
37203;SDS011;23098;48.054;10.636;2023-02-15T16:59:30;29.00;;;18.80;;
37203;SDS011;23098;48.054;10.636;2023-02-15T17:02:14;30.60;;;18.65;;
37203;SDS011;23098;48.054;10.636;2023-02-15T17:04:43;32.90;;;19.55;;
37203;SDS011;23098;48.054;10.636;2023-02-15T17:07:19;33.63;;;18.98;;
37203;SDS011;23098;48.054;10.636;2023-02-15T17:09:49;31.48;;;18.88;;
37203;SDS011;23098;48.054;10.636;2023-02-15T17:17:52;33.33;;;19.77;;
37203;SDS011;23098;48.054;10.636;2023-02-15T17:20:19;32.95;;;20.52;;
37203;SDS011;23098;48.054;10.636;2023-02-15T17:22:47;31.55;;;20.50;;
37203;SDS011;23098;48.054;10.636;2023-02-15T17:25:18;38.58;;;22.73;;
37203;SDS011;23098;48.054;10.636;2023-02-15T17:27:50;41.00;;;23.42;;
37203;SDS011;23098;48.054;10.636;2023-02-15T17:30:22;35.22;;;21.52;;
37203;SDS011;23098;48.054;10.636;2023-02-15T17:32:53;37.65;;;23.23;;
37203;SDS011;23098;48.054;10.636;2023-02-15T17:35:22;37.40;;;22.85;;
37203;SDS011;23098;48.054;10.636;2023-02-15T17:37:49;45.00;;;23.25;;